Time;durP1;ratioP1;P1;durP2;ratioP2;P2;SDS_P1;SDS_P2;PMS_P1;PMS_P2;Temp;Humidity;BMP_temperature;BMP_pressure;BME280_temperature;BME280_humidity;BME280_pressure;Samples;Min_cycle;Max_cycle;Signal;HPM_P1;HPM_P2
2022/09/28 00:05:12;;;;;;;1999.90;999.90;;;9.30;99.90;;;;;;6651942;89;20232;-78
2022/09/28 00:15:12;;;;;;;1999.90;999.90;;;9.40;99.90;;;;;;6664733;88;20247;-79
2022/09/28 00:25:15;;;;;;;1999.90;999.90;;;9.30;99.90;;;;;;6668082;89;20325;-78
2022/09/28 00:35:16;;;;;;;1999.90;999.90;;;9.10;99.90;;;;;;6671661;89;20175;-78
2022/09/28 00:45:17;;;;;;;1999.90;999.90;;;9.20;99.90;;;;;;6676110;89;21027;-78
2022/09/28 00:55:24;;;;;;;1999.90;999.90;;;8.90;99.90;;;;;;6677645;89;20533;-78
2022/09/28 01:05:25;;;;;;;1999.90;999.90;;;8.90;99.90;;;;;;6661121;89;20290;-78
2022/09/28 01:15:28;;;;;;;1999.90;999.90;;;8.70;99.90;;;;;;6649075;89;20321;-78
2022/09/28 01:25:37;;;;;;;1999.90;999.90;;;8.70;99.90;;;;;;6649995;89;20201;-78
2022/09/28 01:35:46;;;;;;;1999.90;999.90;;;8.50;99.90;;;;;;6648929;89;20176;-78
2022/09/28 01:45:52;;;;;;;1999.90;999.90;;;8.50;99.90;;;;;;6646066;89;20775;-78
2022/09/28 01:56:10;;;;;;;1999.90;999.90;;;8.60;99.90;;;;;;6632908;89;20237;-78
2022/09/28 02:06:33;;;;;;;1999.90;999.90;;;8.60;99.90;;;;;;6629728;89;20283;-78
2022/09/28 02:16:42;;;;;;;1999.90;999.90;;;8.40;99.90;;;;;;6645095;89;20311;-78
2022/09/28 02:26:46;;;;;;;1999.90;999.90;;;8.50;99.90;;;;;;6648699;89;20187;-77
2022/09/28 02:36:47;;;;;;;1999.90;999.90;;;8.50;99.90;;;;;;6647770;89;20192;-78
2022/09/28 02:46:53;;;;;;;1999.90;999.90;;;8.60;99.90;;;;;;6649397;89;20211;-79
2022/09/28 02:56:59;;;;;;;;;;;8.60;99.90;;;;;;6645971;89;20224;-78
2022/09/28 03:07:06;;;;;;;1999.90;999.90;;;8.70;99.90;;;;;;6662487;89;20546;-78
2022/09/28 03:17:07;;;;;;;1999.90;999.90;;;8.60;99.90;;;;;;6667850;89;20186;-78
2022/09/28 03:27:08;;;;;;;1999.90;999.90;;;8.60;99.90;;;;;;6665982;89;20199;-78
2022/09/28 03:37:08;;;;;;;1999.90;999.90;;;8.50;99.90;;;;;;6665437;89;20237;-78
2022/09/28 03:47:09;;;;;;;1999.90;999.90;;;8.50;99.90;;;;;;6664790;89;20188;-79
2022/09/28 03:57:09;;;;;;;1999.90;999.90;;;8.50;99.90;;;;;;6665365;89;20209;-78
2022/09/28 04:07:10;;;;;;;1999.90;999.90;;;8.50;99.90;;;;;;6652641;89;20246;-78
2022/09/28 04:17:10;;;;;;;1999.90;999.90;;;8.40;99.90;;;;;;6649365;89;20182;-78
2022/09/28 04:37:30;;;;;;;1999.90;999.90;;;8.50;99.90;;;;;;6666807;89;20169;-78
2022/09/28 04:47:30;;;;;;;1999.90;999.90;;;8.50;99.90;;;;;;6664560;89;21077;-77
2022/09/28 04:57:34;;;;;;;1999.90;999.90;;;8.60;99.90;;;;;;6655752;89;20629;-78
2022/09/28 05:07:35;;;;;;;1999.90;999.90;;;8.50;99.90;;;;;;6648843;89;20234;-77
2022/09/28 05:17:35;;;;;;;1999.90;999.90;;;8.50;99.90;;;;;;6649085;89;20729;-77
2022/09/28 05:27:36;;;;;;;1999.90;999.90;;;8.50;99.90;;;;;;6655905;89;20189;-77
2022/09/28 05:37:37;;;;;;;1999.90;999.90;;;8.40;99.90;;;;;;6650650;89;20189;-77
2022/09/28 05:47:40;;;;;;;1999.90;999.90;;;8.50;99.90;;;;;;6636849;89;20199;-78
2022/09/28 05:57:40;;;;;;;1999.90;999.90;;;8.50;99.90;;;;;;6642471;89;20228;-77
2022/09/28 06:07:41;;;;;;;1999.90;999.90;;;8.50;99.90;;;;;;6645501;88;20192;-78
2022/09/28 06:17:42;;;;;;;1999.90;999.90;;;8.60;99.90;;;;;;6650823;89;20221;-78
2022/09/28 06:27:51;;;;;;;1999.90;999.90;;;8.70;99.90;;;;;;6676770;88;20218;-78
2022/09/28 06:37:52;;;;;;;1999.90;999.90;;;8.70;99.90;;;;;;6651723;89;20204;-78
2022/09/28 06:47:58;;;;;;;1999.90;999.90;;;8.80;99.90;;;;;;6646205;89;20197;-79
2022/09/28 06:58:00;;;;;;;1999.90;999.90;;;8.90;99.90;;;;;;6654540;88;20184;-79
2022/09/28 07:08:02;;;;;;;1999.90;999.90;;;8.90;99.90;;;;;;6653462;89;20210;-79
2022/09/28 07:18:04;;;;;;;1999.90;999.90;;;9.00;99.90;;;;;;6655989;89;20734;-80
2022/09/28 07:28:05;;;;;;;1999.90;999.90;;;9.10;99.90;;;;;;6653355;89;20231;-78
2022/09/28 07:38:06;;;;;;;1999.90;999.90;;;9.40;99.90;;;;;;6650226;88;20215;-78
2022/09/28 07:48:07;;;;;;;1999.90;999.90;;;9.60;99.90;;;;;;6652547;88;20209;-79
2022/09/28 07:58:07;;;;;;;1999.90;999.90;;;9.60;99.90;;;;;;6657256;89;20800;-78
2022/09/28 08:08:09;;;;;;;1999.90;999.90;;;9.70;99.90;;;;;;6652727;88;20751;-79
2022/09/28 08:18:09;;;;;;;1999.90;999.90;;;9.80;99.90;;;;;;6655003;88;20264;-78
2022/09/28 08:28:10;;;;;;;1999.90;999.90;;;9.90;99.90;;;;;;6663378;89;20255;-79
2022/09/28 08:38:12;;;;;;;1999.90;999.90;;;10.20;99.90;;;;;;6654159;89;20210;-79
2022/09/28 08:48:47;;;;;;;1999.90;999.90;;;10.60;99.90;;;;;;6658060;89;20332;-78
2022/09/28 08:58:55;;;;;;;1999.90;999.90;;;10.60;99.90;;;;;;6647964;89;20265;-79
2022/09/28 09:08:59;;;;;;;1999.90;999.90;;;10.80;99.90;;;;;;6656889;89;20659;-80
2022/09/28 09:19:14;;;;;;;1999.90;999.90;;;11.60;99.90;;;;;;6647701;89;20233;-79
2022/09/28 09:29:39;;;;;;;1999.90;999.90;;;12.30;99.90;;;;;;6653220;88;20403;-80
2022/09/28 09:40:00;;;;;;;1999.90;999.90;;;12.90;99.90;;;;;;6655199;89;20213;-81
2022/09/28 09:50:13;;;;;;;1999.90;999.90;;;13.20;99.90;;;;;;6647386;88;20200;-82
2022/09/28 10:00:16;;;;;;;1999.90;999.90;;;13.10;99.90;;;;;;6646111;89;20200;-80
2022/09/28 10:10:28;;;;;;;1999.90;999.90;;;13.10;99.90;;;;;;6646265;88;20191;-79
2022/09/28 10:20:35;;;;;;;1999.90;999.90;;;13.20;99.90;;;;;;6661727;89;20225;-79
2022/09/28 10:30:42;;;;;;;1999.90;999.90;;;13.60;99.90;;;;;;6645644;88;20197;-82
2022/09/28 10:40:48;;;;;;;1999.90;999.90;;;13.70;99.90;;;;;;6645539;89;20197;-79
2022/09/28 10:51:01;;;;;;;1999.90;999.90;;;13.60;99.90;;;;;;6671682;88;20203;-80
2022/09/28 11:01:08;;;;;;;1999.90;999.90;;;13.90;99.90;;;;;;6656092;89;20196;-80
2022/09/28 11:11:11;;;;;;;1999.90;999.90;;;13.60;99.90;;;;;;6654970;89;20297;-79
2022/09/28 11:21:20;;;;;;;1999.90;999.90;;;14.80;99.90;;;;;;6648970;89;20209;-79
2022/09/28 11:31:25;;;;;;;1999.90;999.90;;;14.40;99.90;;;;;;6656153;89;20196;-79
2022/09/28 11:41:29;;;;;;;;;;;14.20;99.90;;;;;;6674433;88;20802;-80
2022/09/28 11:51:33;;;;;;;1999.90;999.90;;;16.30;99.90;;;;;;6671927;89;20093;-79
2022/09/28 12:01:43;;;;;;;1999.90;999.90;;;15.60;99.90;;;;;;6668291;76;20181;-76
2022/09/28 12:11:47;;;;;;;1999.90;999.90;;;14.80;99.90;;;;;;6649912;88;20695;-76
2022/09/28 12:21:51;;;;;;;1999.90;999.90;;;14.50;99.90;;;;;;6648157;88;20241;-76
2022/09/28 12:32:12;;;;;;;1999.90;999.90;;;14.10;99.90;;;;;;6658541;88;21109;-77
2022/09/28 12:42:44;;;;;;;1999.90;999.90;;;14.10;99.90;;;;;;6657449;88;20207;-77
2022/09/28 12:53:10;;;;;;;1999.90;999.90;;;14.00;99.90;;;;;;6660133;88;20189;-77
2022/09/28 13:03:34;;;;;;;1999.90;999.90;;;13.90;99.90;;;;;;6641484;88;20762;-78
2022/09/28 13:13:52;;;;;;;1999.90;999.90;;;13.70;99.90;;;;;;6638455;89;20790;-76
2022/09/28 13:23:55;;;;;;;1999.90;999.90;;;13.50;99.90;;;;;;6638784;88;20250;-76
2022/09/28 13:34:01;;;;;;;1999.90;999.90;;;13.20;99.90;;;;;;6638916;89;20642;-76
2022/09/28 13:44:11;;;;;;;1999.90;999.90;;;13.40;99.90;;;;;;6634839;88;20266;-77
2022/09/28 13:54:40;;;;;;;1999.90;999.90;;;13.60;99.90;;;;;;6637787;88;20231;-77
2022/09/28 14:04:56;;;;;;;1999.90;999.90;;;14.00;99.90;;;;;;6642669;88;20241;-77
2022/09/28 14:14:58;;;;;;;1999.90;999.90;;;13.80;99.90;;;;;;6647105;88;20715;-77
2022/09/28 14:25:22;;;;;;;1999.90;999.90;;;13.60;99.90;;;;;;6642668;89;20684;-76
2022/09/28 14:35:39;;;;;;;1999.90;999.90;;;13.50;99.90;;;;;;6640819;88;20206;-78
2022/09/28 14:45:41;;;;;;;1999.90;999.90;;;13.60;99.90;;;;;;6639544;88;20304;-76
2022/09/28 14:55:48;;;;;;;1999.90;999.90;;;13.70;99.90;;;;;;6649327;88;20308;-76
2022/09/28 15:05:49;;;;;;;1999.90;999.90;;;13.80;99.90;;;;;;6647028;88;20581;-76
2022/09/28 15:15:59;;;;;;;1999.90;999.90;;;14.10;99.90;;;;;;6644195;88;20195;-76
2022/09/28 15:26:00;;;;;;;1999.90;999.90;;;14.40;99.90;;;;;;6648281;88;20226;-76
2022/09/28 15:36:05;;;;;;;1999.90;999.90;;;14.20;99.90;;;;;;6646975;88;20284;-76
2022/09/28 15:46:10;;;;;;;;;;;14.10;99.90;;;;;;6643713;88;20922;-77
2022/09/28 15:56:10;;;;;;;1999.90;999.90;;;14.20;99.90;;;;;;6647924;88;20078;-75
2022/09/28 16:06:11;;;;;;;1999.90;999.90;;;13.90;99.90;;;;;;6651586;88;20673;-77
2022/09/28 16:16:15;;;;;;;1999.90;999.90;;;13.80;99.90;;;;;;6651375;88;20214;-76
2022/09/28 16:26:28;;;;;;;1999.90;999.90;;;13.80;99.90;;;;;;6650817;88;20207;-75
2022/09/28 16:36:44;;;;;;;1999.90;999.90;;;12.80;99.90;;;;;;6650089;88;20343;-78
2022/09/28 16:46:45;;;;;;;1999.90;999.90;;;12.30;99.90;;;;;;6654972;88;20656;-76
2022/09/28 16:56:45;;;;;;;1999.90;999.90;;;11.70;99.90;;;;;;6649819;88;20346;-76
2022/09/28 17:06:46;;;;;;;1999.90;999.90;;;11.30;99.90;;;;;;6651756;88;20197;-77
2022/09/28 17:16:50;;;;;;;1999.90;999.90;;;10.90;99.90;;;;;;6645469;89;20200;-78
2022/09/28 17:26:51;;;;;;;1999.90;999.90;;;10.70;99.90;;;;;;6645854;88;20603;-77
2022/09/28 17:36:51;;;;;;;1999.90;999.90;;;10.60;99.90;;;;;;6658993;88;20232;-77
2022/09/28 17:46:52;;;;;;;1999.90;999.90;;;10.70;99.90;;;;;;6659121;88;20257;-78
2022/09/28 17:56:53;;;;;;;1999.90;999.90;;;10.80;99.90;;;;;;6651057;88;20185;-77
2022/09/28 18:06:53;;;;;;;1999.90;999.90;;;10.70;99.90;;;;;;6648666;88;20192;-76
2022/09/28 18:16:54;;;;;;;1999.90;999.90;;;10.80;99.90;;;;;;6641892;89;20697;-76
2022/09/28 18:26:55;;;;;;;1999.90;999.90;;;10.80;99.90;;;;;;6645657;88;20288;-77
2022/09/28 18:36:55;;;;;;;1999.90;999.90;;;11.10;99.90;;;;;;6648501;88;20188;-78
2022/09/28 18:46:56;;;;;;;1999.90;999.90;;;10.90;99.90;;;;;;6645692;88;20201;-79
2022/09/28 18:56:56;;;;;;;1999.90;999.90;;;10.90;99.90;;;;;;6649455;88;20642;-78
2022/09/28 19:06:57;;;;;;;1999.90;999.90;;;10.90;99.90;;;;;;6653797;88;20273;-79
2022/09/28 19:16:57;;;;;;;1999.90;999.90;;;10.80;99.90;;;;;;6653126;88;20207;-79
2022/09/28 19:26:58;;;;;;;1999.90;999.90;;;10.60;99.90;;;;;;6651720;88;20188;-78
2022/09/28 19:37:02;;;;;;;1999.90;999.90;;;10.40;99.90;;;;;;6646279;88;20680;-79
2022/09/28 19:47:06;;;;;;;1999.90;999.90;;;10.20;99.90;;;;;;6656106;88;20180;-79
2022/09/28 19:57:07;;;;;;;1999.90;999.90;;;10.10;99.90;;;;;;6656798;89;20185;-77
2022/09/28 20:07:07;;;;;;;1999.90;999.90;;;10.30;99.90;;;;;;6646499;88;20223;-78
2022/09/28 20:17:08;;;;;;;1999.90;999.90;;;10.00;99.90;;;;;;6649854;88;20188;-78
2022/09/28 20:27:09;;;;;;;1999.90;999.90;;;9.90;99.90;;;;;;6649793;88;20200;-77
2022/09/28 20:37:12;;;;;;;1999.90;999.90;;;9.90;99.90;;;;;;6657576;88;20210;-77
2022/09/28 20:47:12;;;;;;;1999.90;999.90;;;9.90;99.90;;;;;;6640485;88;20234;-78
2022/09/28 20:57:16;;;;;;;1999.90;999.90;;;10.00;99.90;;;;;;6651818;88;20252;-75
2022/09/28 21:07:16;;;;;;;1999.90;999.90;;;10.10;99.90;;;;;;6642554;88;20181;-77
2022/09/28 21:17:17;;;;;;;1999.90;999.90;;;9.70;99.90;;;;;;6640202;88;20638;-79
2022/09/28 21:27:17;;;;;;;1999.90;999.90;;;9.60;99.90;;;;;;6642932;88;20205;-77
2022/09/28 21:37:18;;;;;;;1999.90;999.90;;;9.40;99.90;;;;;;6656644;88;20676;-76
2022/09/28 21:47:19;;;;;;;1999.90;999.90;;;9.60;99.90;;;;;;6641124;88;20716;-76
2022/09/28 21:57:19;;;;;;;1999.90;999.90;;;9.40;99.90;;;;;;6647818;88;20704;-76
2022/09/28 22:07:20;;;;;;;1999.90;999.90;;;9.40;99.90;;;;;;6644702;88;20331;-76
2022/09/28 22:17:21;;;;;;;1999.90;999.90;;;9.30;99.90;;;;;;6643709;88;20204;-76
2022/09/28 22:27:22;;;;;;;1999.90;999.90;;;9.20;99.90;;;;;;6638309;88;20325;-76
2022/09/28 22:37:25;;;;;;;1999.90;999.90;;;9.20;99.90;;;;;;6646156;89;20209;-76
2022/09/28 22:47:26;;;;;;;1999.90;999.90;;;9.10;99.90;;;;;;6655713;88;20299;-77
2022/09/28 22:57:26;;;;;;;1999.90;999.90;;;9.20;99.90;;;;;;6640281;88;20218;-76
2022/09/28 23:07:26;;;;;;;1999.90;999.90;;;9.00;99.90;;;;;;6641986;89;20267;-76
2022/09/28 23:17:27;;;;;;;1999.90;999.90;;;8.80;99.90;;;;;;6643950;88;20188;-76
2022/09/28 23:27:27;;;;;;;1999.90;999.90;;;8.90;99.90;;;;;;6642190;88;20287;-77
2022/09/28 23:37:28;;;;;;;1999.90;999.90;;;8.80;99.90;;;;;;6643471;89;20208;-76
2022/09/28 23:47:28;;;;;;;1999.90;999.90;;;8.40;99.90;;;;;;6644752;89;20210;-77
2022/09/28 23:57:29;;;;;;;1999.90;999.90;;;8.40;99.90;;;;;;6639979;88;20301;-77
